Time;durP1;ratioP1;P1;durP2;ratioP2;P2;SDS_P1;SDS_P2;PMS_P1;PMS_P2;Temp;Humidity;BMP_temperature;BMP_pressure;BME280_temperature;BME280_humidity;BME280_pressure;Samples;Min_cycle;Max_cycle;Signal;HPM_P1;HPM_P2
2023/02/21 08:21:10;;;;;;;39.70;20.00;;;8.80;1.00;;;;;;6218440;23;20180;-85
2023/02/21 08:23:41;;;;;;;38.42;19.50;;;8.90;1.00;;;;;;6217574;23;20400;-86
2023/02/21 08:26:32;;;;;;;39.50;19.10;;;8.90;1.00;;;;;;6190535;23;20173;-86
2023/02/21 08:29:25;;;;;;;38.75;19.60;;;8.90;1.00;;;;;;6217211;23;20403;-86
2023/02/21 08:32:06;;;;;;;39.47;21.00;;;9.00;1.00;;;;;;6191319;23;20645;-86
2023/02/21 08:35:00;;;;;;;58.13;24.77;;;9.00;1.00;;;;;;6222544;23;20480;-88
2023/02/21 08:37:55;;;;;;;52.17;22.90;;;9.00;1.00;;;;;;6220818;23;20419;-87
2023/02/21 08:40:26;;;;;;;62.07;25.57;;;9.00;1.00;;;;;;6185599;23;20153;-86
2023/02/21 08:42:54;;;;;;;57.77;25.57;;;9.00;1.00;;;;;;6191495;23;20385;-87
2023/02/21 08:48:42;;;;;;;;;;;;;;;;;;;;;
2023/02/21 08:51:37;;;;;;;57.17;23.40;;;8.90;1.00;;;;;;6219993;23;20385;-87
2023/02/21 08:54:10;;;;;;;64.65;24.17;;;9.00;1.00;;;;;;6218841;23;20436;-88
2023/02/21 08:56:59;;;;;;;;;;;;;;;;;;;;;
2023/02/21 08:59:55;;;;;;;;;;;;;;;;;;;;;
2023/02/21 09:02:37;;;;;;;;;;;;;;;;;;;;;
2023/02/21 09:05:43;;;;;;;53.57;24.00;;;9.10;1.00;;;;;;6220723;23;20381;-86
2023/02/21 09:08:30;;;;;;;;;;;;;;;;;;;;;
2023/02/21 09:11:32;;;;;;;61.83;25.60;;;9.20;1.00;;;;;;6218151;23;20456;-85
2023/02/21 09:14:08;;;;;;;49.47;21.40;;;9.20;1.00;;;;;;6217458;23;20506;-86
2023/02/21 09:16:43;;;;;;;;;;;;;;;;;;;;;
2023/02/21 09:19:23;;;;;;;45.00;22.00;;;9.30;1.00;;;;;;6228756;23;20427;-86
2023/02/21 09:24:43;;;;;;;50.20;21.83;;;9.40;1.00;;;;;;6249661;23;20395;-86
2023/02/21 09:27:16;;;;;;;46.67;22.67;;;9.50;1.00;;;;;;6246034;23;20413;-86
2023/02/21 09:30:10;;;;;;;47.37;21.80;;;9.50;1.00;;;;;;6246188;23;20398;-87
2023/02/21 09:32:59;;;;;;;46.67;20.70;;;9.50;1.00;;;;;;6244299;23;20415;-86
2023/02/21 09:35:31;;;;;;;45.00;21.47;;;9.60;1.00;;;;;;6232694;23;20384;-86
2023/02/21 09:38:05;;;;;;;45.53;21.43;;;9.60;1.00;;;;;;6246016;23;20376;-86
2023/02/21 09:41:21;;;;;;;47.07;21.37;;;9.60;1.00;;;;;;6246758;23;20375;-84
2023/02/21 09:43:50;;;;;;;42.77;20.40;;;9.60;1.00;;;;;;6249333;23;20425;-85
2023/02/21 09:46:34;;;;;;;38.00;19.57;;;9.70;1.00;;;;;;6249248;23;20838;-85
2023/02/21 09:49:18;;;;;;;;;;;;;;;;;;;;;
2023/02/21 09:51:50;;;;;;;39.30;17.93;;;9.80;1.00;;;;;;6245301;23;20447;-87
2023/02/21 09:57:44;;;;;;;40.10;19.10;;;9.80;1.00;;;;;;6158678;22;20372;-86
2023/02/21 10:00:32;;;;;;;38.23;16.93;;;9.90;99.90;;;;;;6242531;23;20378;-86
2023/02/21 10:02:58;;;;;;;31.20;16.20;;;9.90;99.90;;;;;;6242742;23;20375;-87
2023/02/21 10:06:09;;;;;;;;;;;;;;;;;;;;;
2023/02/21 10:09:13;;;;;;;34.43;16.67;;;10.00;99.90;;;;;;6242728;23;20217;-86
2023/02/21 10:12:03;;;;;;;;;;;;;;;;;;;;;
2023/02/21 10:14:57;;;;;;;28.23;16.33;;;10.10;99.90;;;;;;6245972;23;20471;-86
2023/02/21 10:17:50;;;;;;;26.43;15.27;;;10.10;99.90;;;;;;6244696;23;20372;-86
2023/02/21 10:20:28;;;;;;;24.37;13.23;;;10.20;99.90;;;;;;6245102;23;20396;-86
2023/02/21 10:23:05;;;;;;;;;;;;;;;;;;;;;
2023/02/21 10:25:42;;;;;;;26.77;13.80;;;10.40;99.90;;;;;;6246267;23;20440;-86
2023/02/21 10:28:26;;;;;;;;;;;;;;;;;;;;;
2023/02/21 10:31:03;;;;;;;25.30;12.57;;;10.40;58.80;;;;;;6244684;23;20431;-86
2023/02/21 10:33:42;;;;;;;25.67;13.50;;;10.40;32.50;;;;;;6245199;23;20537;-86
2023/02/21 10:36:18;;;;;;;23.20;13.00;;;10.40;1.00;;;;;;6243937;22;20356;-87
2023/02/21 10:39:07;;;;;;;25.20;13.60;;;10.60;1.00;;;;;;6242589;23;21004;-86
2023/02/21 10:41:37;;;;;;;25.90;15.63;;;10.60;1.00;;;;;;6243683;23;20345;-86
2023/02/21 10:44:25;;;;;;;25.87;15.70;;;10.60;99.90;;;;;;6243012;23;20400;-86
2023/02/21 10:47:03;;;;;;;31.80;16.83;;;10.60;99.90;;;;;;6242970;23;20697;-85
2023/02/21 10:49:55;;;;;;;31.97;17.03;;;10.60;99.90;;;;;;6244997;23;20359;-86
2023/02/21 10:52:21;;;;;;;32.37;16.13;;;10.60;99.90;;;;;;6244118;22;20392;-87
2023/02/21 10:55:16;;;;;;;33.20;18.00;;;10.60;99.90;;;;;;6241995;23;20721;-87
2023/02/21 10:57:50;;;;;;;32.53;18.00;;;10.60;99.90;;;;;;6217544;23;20404;-86
2023/02/21 11:00:33;;;;;;;27.13;15.63;;;10.70;1.00;;;;;;6244424;23;20341;-87
2023/02/21 11:03:18;;;;;;;32.13;17.30;;;10.70;19.60;;;;;;6240639;23;20477;-87
2023/02/21 11:05:51;;;;;;;33.53;18.10;;;10.70;13.40;;;;;;6243174;23;20390;-86
2023/02/21 11:09:02;;;;;;;35.57;18.27;;;10.80;1.00;;;;;;6241492;23;20469;-88
2023/02/21 11:11:42;;;;;;;34.70;16.83;;;10.80;1.00;;;;;;6238336;23;21349;-85
2023/02/21 11:14:37;;;;;;;;;;;;;;;;;;;;;
2023/02/21 11:20:32;;;;;;;;;;;;;;;;;;;;;
2023/02/21 11:23:19;;;;;;;26.30;15.27;;;10.90;99.90;;;;;;6245382;23;20443;-86
2023/02/21 11:29:25;;;;;;;26.63;15.33;;;11.00;1.00;;;;;;6239952;22;20902;-87
2023/02/21 11:32:34;;;;;;;28.53;16.77;;;11.00;99.90;;;;;;6240987;23;20416;-86
2023/02/21 11:35:27;;;;;;;25.03;15.40;;;11.10;99.90;;;;;;6242232;23;20820;-87
2023/02/21 11:41:04;;;;;;;26.07;15.83;;;11.20;99.90;;;;;;6238785;23;20388;-86
2023/02/21 11:43:46;;;;;;;22.40;13.90;;;11.20;1.00;;;;;;6244949;23;20498;-86
2023/02/21 11:46:33;;;;;;;22.97;14.27;;;11.20;99.90;;;;;;6244377;23;21004;-86
2023/02/21 11:49:58;;;;;;;;;;;;;;;;;;;;;
2023/02/21 11:53:10;;;;;;;26.93;14.80;;;11.30;1.00;;;;;;6244948;23;20826;-85
2023/02/21 11:55:38;;;;;;;23.43;13.33;;;11.30;1.00;;;;;;6204067;23;20398;-87
2023/02/21 11:58:44;;;;;;;26.80;14.40;;;11.20;1.00;;;;;;6242463;23;20425;-85
2023/02/21 12:05:24;;;;;;;;;;;;;;;;;;;;;
2023/02/21 12:08:05;;;;;;;27.60;15.80;;;11.20;99.90;;;;;;6243021;23;20759;-86
2023/02/21 12:10:49;;;;;;;25.23;15.50;;;11.30;1.00;;;;;;6244011;23;20384;-86
2023/02/21 12:14:02;;;;;;;27.23;15.50;;;11.30;1.00;;;;;;6243297;23;20458;-87
2023/02/21 12:21:15;;;;;;;;;;;;;;;;;;;;;
2023/02/21 12:30:25;;;;;;;;;;;;;;;;;;;;;
2023/02/21 12:33:43;;;;;;;;;;;;;;;;;;;;;
2023/02/21 12:56:01;;;;;;;31.23;17.03;;;12.00;1.00;;;;;;6273400;22;20427;-86
2023/02/21 12:59:33;;;;;;;;;;;;;;;;;;;;;
2023/02/21 13:02:39;;;;;;;;;;;;;;;;;;;;;
2023/02/21 13:05:45;;;;;;;;;;;;;;;;;;;;;
2023/02/21 13:08:57;;;;;;;;;;;;;;;;;;;;;
2023/02/21 13:21:51;;;;;;;27.10;16.77;;;12.50;2.60;;;;;;6237646;22;20455;-85
2023/02/21 13:28:22;;;;;;;29.50;16.50;;;12.70;1.00;;;;;;6250827;22;20372;-86
2023/02/21 13:31:48;;;;;;;31.90;16.97;;;12.80;1.00;;;;;;6201851;23;20911;-90
2023/02/21 13:35:13;;;;;;;;;;;;;;;;;;;;;
2023/02/21 13:37:48;;;;;;;25.57;16.90;;;13.20;1.00;;;;;;6243316;22;20473;-88
2023/02/21 13:40:32;;;;;;;31.40;19.20;;;13.40;99.90;;;;;;6244104;23;21019;-88
2023/02/21 13:43:05;;;;;;;26.43;15.70;;;13.60;99.90;;;;;;6270430;22;20831;-86
2023/02/21 13:45:31;;;;;;;28.80;16.63;;;13.70;85.80;;;;;;6249511;22;20363;-86
2023/02/21 13:47:57;;;;;;;30.80;19.13;;;13.80;54.00;;;;;;6246461;22;20382;-86
2023/02/21 13:50:37;;;;;;;29.13;17.40;;;14.00;46.50;;;;;;6249783;22;20379;-85
2023/02/21 13:53:20;;;;;;;28.50;17.37;;;14.10;1.00;;;;;;6250194;23;20191;-83
2023/02/21 13:55:58;;;;;;;27.20;17.17;;;14.20;1.00;;;;;;6251865;22;20401;-86
2023/02/21 13:58:42;;;;;;;30.17;17.53;;;14.40;1.00;;;;;;6251059;23;20378;-82
2023/02/21 14:01:28;;;;;;;73.30;45.70;;;14.60;1.00;;;;;;6251447;22;20444;-83
2023/02/21 14:03:56;;;;;;;26.63;18.40;;;14.70;1.00;;;;;;6249462;23;20475;-84
2023/02/21 14:06:30;;;;;;;29.77;19.67;;;14.70;1.00;;;;;;6250037;22;20375;-83
2023/02/21 14:09:01;;;;;;;28.63;18.50;;;14.70;1.00;;;;;;6251257;22;20673;-84
2023/02/21 14:11:34;;;;;;;36.13;20.17;;;14.70;1.00;;;;;;6251104;22;20363;-83
2023/02/21 14:14:17;;;;;;;29.77;19.50;;;14.60;1.00;;;;;;6251979;22;20435;-83
2023/02/21 14:16:59;;;;;;;33.87;20.63;;;14.50;1.00;;;;;;6248443;22;20398;-84
2023/02/21 14:19:29;;;;;;;33.03;22.93;;;14.60;1.00;;;;;;6249748;22;20368;-85
2023/02/21 14:22:02;;;;;;;31.67;20.73;;;14.60;1.00;;;;;;6272143;22;20399;-85
2023/02/21 14:24:33;;;;;;;31.20;19.40;;;14.70;1.00;;;;;;6251075;22;20713;-86
2023/02/21 14:27:11;;;;;;;31.00;21.10;;;14.70;1.00;;;;;;6247788;23;20881;-85
2023/02/21 14:29:42;;;;;;;34.60;22.33;;;14.70;1.00;;;;;;6273413;22;20388;-85
2023/02/21 14:32:07;;;;;;;28.57;19.63;;;14.70;1.00;;;;;;6247244;23;20417;-85
2023/02/21 14:34:39;;;;;;;33.80;21.40;;;14.60;1.00;;;;;;6250786;23;20399;-86
2023/02/21 14:37:31;;;;;;;34.30;21.80;;;14.60;1.00;;;;;;6256792;22;20144;-87
2023/02/21 14:40:23;;;;;;;32.57;22.10;;;14.60;1.00;;;;;;6254431;23;20371;-88
2023/02/21 14:43:30;;;;;;;33.53;22.83;;;14.60;1.00;;;;;;6249029;22;20363;-86
2023/02/21 14:46:06;;;;;;;35.37;21.87;;;14.40;1.00;;;;;;6229311;22;20393;-87
2023/02/21 14:49:09;;;;;;;34.63;23.43;;;14.30;1.00;;;;;;6279371;22;20399;-84
2023/02/21 14:52:36;;;;;;;;;;;;;;;;;;;;;
2023/02/21 14:55:17;;;;;;;28.40;19.27;;;14.00;1.00;;;;;;6227439;22;21040;-85
2023/02/21 14:58:37;;;;;;;36.93;22.27;;;13.90;1.00;;;;;;6249659;22;20428;-85
2023/02/21 15:02:01;;;;;;;30.87;19.23;;;13.80;1.00;;;;;;6273047;22;20396;-86
2023/02/21 15:04:54;;;;;;;40.53;26.47;;;13.80;1.00;;;;;;6195504;22;20418;-83
2023/02/21 15:07:32;;;;;;;40.73;28.97;;;13.80;1.00;;;;;;6252713;22;20367;-83
2023/02/21 15:10:20;;;;;;;37.03;21.77;;;13.80;1.00;;;;;;6276630;22;20395;-85
2023/02/21 15:13:11;;;;;;;33.77;21.07;;;13.80;1.00;;;;;;6250444;22;20421;-84
2023/02/21 15:15:45;;;;;;;39.93;27.03;;;13.80;1.00;;;;;;6255389;22;20387;-84
2023/02/21 15:18:25;;;;;;;37.17;23.30;;;13.70;1.00;;;;;;6254235;22;20905;-84
2023/02/21 15:21:11;;;;;;;34.83;21.87;;;13.70;1.00;;;;;;6255113;22;20413;-83
2023/02/21 15:23:47;;;;;;;32.70;21.50;;;13.60;1.00;;;;;;6278815;22;20412;-83
2023/02/21 15:26:23;;;;;;;44.60;31.00;;;13.50;1.00;;;;;;6255723;22;20369;-84
2023/02/21 15:29:15;;;;;;;34.60;24.60;;;13.40;1.00;;;;;;6252599;22;20360;-86
2023/02/21 15:31:51;;;;;;;30.53;20.80;;;13.30;1.00;;;;;;6251080;22;20360;-86
2023/02/21 15:34:21;;;;;;;34.70;21.27;;;13.10;1.00;;;;;;6251355;22;20523;-86
2023/02/21 15:36:52;;;;;;;37.77;25.40;;;13.00;1.00;;;;;;6251895;23;20386;-86
2023/02/21 15:39:22;;;;;;;42.77;26.93;;;12.90;1.00;;;;;;6248075;22;20863;-85
2023/02/21 15:41:49;;;;;;;48.13;37.53;;;12.70;1.00;;;;;;6250553;23;20370;-85
2023/02/21 15:44:27;;;;;;;42.90;29.20;;;12.60;1.00;;;;;;6248537;23;20471;-86
2023/02/21 15:47:01;;;;;;;38.77;23.67;;;12.50;1.00;;;;;;6249625;22;20418;-86
2023/02/21 15:49:35;;;;;;;38.67;26.77;;;12.40;6.90;;;;;;6249431;23;20395;-85
2023/02/21 15:52:03;;;;;;;30.53;19.80;;;12.30;55.50;;;;;;6251769;22;20379;-85
2023/02/21 15:54:30;;;;;;;40.07;29.80;;;12.20;99.90;;;;;;6249930;22;20400;-86
2023/02/21 15:57:15;;;;;;;44.50;37.10;;;12.20;99.90;;;;;;6251267;22;20414;-86
2023/02/21 15:59:41;;;;;;;39.37;22.03;;;12.10;99.90;;;;;;6258558;22;20363;-85
2023/02/21 16:02:23;;;;;;;34.00;22.50;;;12.10;99.90;;;;;;6253065;23;20463;-86
2023/02/21 16:04:51;;;;;;;37.60;23.27;;;12.10;99.90;;;;;;6251545;22;20180;-86
2023/02/21 16:07:35;;;;;;;44.67;34.97;;;12.00;99.90;;;;;;6253707;22;20832;-84
2023/02/21 16:10:07;;;;;;;42.23;28.83;;;12.00;99.90;;;;;;6251325;22;20966;-85
2023/02/21 16:12:44;;;;;;;39.30;25.37;;;11.90;99.90;;;;;;6275964;22;20423;-86
2023/02/21 16:15:27;;;;;;;40.70;24.60;;;11.80;99.90;;;;;;6251795;22;20384;-87
2023/02/21 16:17:56;;;;;;;43.50;25.47;;;11.80;99.90;;;;;;6251419;22;20367;-86
2023/02/21 16:20:28;;;;;;;37.47;25.20;;;11.80;1.00;;;;;;6251659;22;20384;-85
2023/02/21 16:23:19;;;;;;;44.07;28.43;;;11.70;1.00;;;;;;6275251;22;20388;-85
2023/02/21 16:26:07;;;;;;;50.30;32.20;;;11.70;1.00;;;;;;6250066;23;20380;-86
2023/02/21 16:28:32;;;;;;;37.50;23.63;;;11.70;1.00;;;;;;6277306;22;20478;-85
2023/02/21 16:31:01;;;;;;;43.17;25.97;;;11.60;1.00;;;;;;6275875;22;20395;-85
2023/02/21 16:33:28;;;;;;;48.43;29.43;;;11.60;1.00;;;;;;6249233;22;20191;-87
2023/02/21 16:35:57;;;;;;;46.20;28.07;;;11.50;1.00;;;;;;6248639;23;20737;-85
2023/02/21 16:38:25;;;;;;;51.40;28.90;;;11.40;94.70;;;;;;6249727;22;20403;-87
2023/02/21 16:40:52;;;;;;;46.60;27.30;;;11.40;99.90;;;;;;6245652;22;20380;-89
2023/02/21 16:43:20;;;;;;;46.43;27.10;;;11.40;99.90;;;;;;6245753;23;20400;-83
2023/02/21 16:45:50;;;;;;;56.50;31.63;;;11.30;99.90;;;;;;6245421;22;20443;-86
2023/02/21 16:48:20;;;;;;;48.80;27.30;;;11.30;99.90;;;;;;6243495;22;20380;-87
2023/02/21 16:50:47;;;;;;;44.83;27.03;;;11.20;1.00;;;;;;6243272;22;20379;-87
2023/02/21 16:53:19;;;;;;;46.33;26.07;;;11.20;1.00;;;;;;6246029;22;20777;-82
2023/02/21 16:55:46;;;;;;;38.37;24.20;;;11.20;1.00;;;;;;6247651;22;20395;-83
2023/02/21 16:58:25;;;;;;;40.93;24.57;;;11.10;1.00;;;;;;6265149;22;20399;-84
2023/02/21 17:01:01;;;;;;;42.40;27.30;;;11.10;1.00;;;;;;6269146;22;20384;-84
2023/02/21 17:03:29;;;;;;;42.80;23.80;;;11.10;18.50;;;;;;6244445;22;20493;-83
2023/02/21 17:06:00;;;;;;;40.37;24.20;;;11.00;5.00;;;;;;6243715;23;20505;-84
2023/02/21 17:08:40;;;;;;;50.53;29.60;;;10.90;99.90;;;;;;6241596;23;20394;-86
2023/02/21 17:11:13;;;;;;;40.97;24.17;;;10.90;99.90;;;;;;6244489;22;20371;-86
2023/02/21 17:20:46;;;;;;;45.43;25.80;;;10.80;99.90;;;;;;6241651;22;20834;-87
2023/02/21 17:23:26;;;;;;;;;;;;;;;;;;;;;
2023/02/21 17:26:21;;;;;;;;;;;;;;;;;;;;;
2023/02/21 17:28:50;;;;;;;43.50;24.37;;;10.70;1.00;;;;;;6245104;23;20443;-83
2023/02/21 17:31:18;;;;;;;43.10;25.97;;;10.70;1.00;;;;;;6248927;22;20417;-83
2023/02/21 17:33:46;;;;;;;37.97;24.63;;;10.70;99.90;;;;;;6248699;23;20423;-87
2023/02/21 17:36:23;;;;;;;48.83;26.20;;;10.70;99.90;;;;;;6256706;22;20410;-86
2023/02/21 17:39:09;;;;;;;42.20;26.07;;;10.70;99.90;;;;;;6252610;22;20406;-87
2023/02/21 17:41:43;;;;;;;46.27;26.37;;;10.70;99.90;;;;;;6276695;22;20387;-87
2023/02/21 17:44:11;;;;;;;38.53;24.50;;;10.70;99.90;;;;;;6251228;23;20430;-84
2023/02/21 17:46:44;;;;;;;40.37;25.97;;;10.70;99.90;;;;;;6256440;23;20809;-83
2023/02/21 17:49:10;;;;;;;48.03;29.70;;;10.70;99.90;;;;;;6259251;22;20352;-83
2023/02/21 17:51:35;;;;;;;48.87;27.47;;;10.70;99.90;;;;;;6256953;23;20383;-84
2023/02/21 17:54:01;;;;;;;58.00;32.30;;;10.70;99.90;;;;;;6258897;23;20208;-83
2023/02/21 17:56:27;;;;;;;49.20;31.00;;;10.60;99.90;;;;;;6256386;22;20231;-82
2023/02/21 17:58:53;;;;;;;43.40;26.93;;;10.60;99.90;;;;;;6256662;23;20184;-82
2023/02/21 18:01:20;;;;;;;46.53;27.43;;;10.50;1.00;;;;;;6253032;23;20395;-82
2023/02/21 18:03:47;;;;;;;50.60;27.30;;;10.40;1.00;;;;;;6257192;22;20466;-82
2023/02/21 18:06:13;;;;;;;51.20;31.40;;;10.30;1.00;;;;;;6256529;22;20391;-82
2023/02/21 18:08:39;;;;;;;58.20;36.90;;;10.30;99.90;;;;;;6253929;22;20388;-83
2023/02/21 18:11:08;;;;;;;58.60;29.93;;;10.20;99.90;;;;;;6254087;23;20399;-83
2023/02/21 18:13:36;;;;;;;51.70;29.37;;;10.10;1.00;;;;;;6273470;22;20185;-82
2023/02/21 18:16:04;;;;;;;51.33;29.10;;;10.00;58.50;;;;;;6280301;22;20395;-83
2023/02/21 18:18:39;;;;;;;54.23;27.33;;;9.90;99.90;;;;;;6276606;22;20390;-83
2023/02/21 18:21:05;;;;;;;48.03;27.60;;;9.90;99.90;;;;;;6252729;22;20410;-84
2023/02/21 18:23:32;;;;;;;54.07;30.07;;;9.90;1.00;;;;;;6274937;22;20774;-83
2023/02/21 18:26:06;;;;;;;70.67;42.50;;;9.90;1.00;;;;;;6251107;22;20430;-84
2023/02/21 18:28:41;;;;;;;;;;;;;;;;;;;;;
2023/02/21 18:31:14;;;;;;;76.57;46.73;;;10.00;1.00;;;;;;6256363;23;20387;-82
2023/02/21 18:33:42;;;;;;;47.03;28.40;;;10.00;1.00;;;;;;6258368;22;20434;-83
2023/02/21 18:36:10;;;;;;;50.17;29.87;;;10.00;1.00;;;;;;6258368;22;20398;-82
2023/02/21 18:38:39;;;;;;;43.43;26.10;;;10.00;1.00;;;;;;6253193;23;20376;-83
2023/02/21 18:41:13;;;;;;;44.40;28.00;;;9.90;1.00;;;;;;6252499;22;20392;-82
2023/02/21 18:43:42;;;;;;;43.70;29.37;;;9.90;21.30;;;;;;6252825;22;20394;-82
2023/02/21 18:46:09;;;;;;;50.63;27.20;;;9.90;34.20;;;;;;6257772;22;20387;-82
2023/02/21 18:48:36;;;;;;;48.30;29.07;;;9.90;99.90;;;;;;6253578;23;20388;-82
2023/02/21 18:51:18;;;;;;;45.50;28.30;;;9.90;99.90;;;;;;6254500;22;20356;-83
2023/02/21 18:53:44;;;;;;;48.87;29.33;;;9.90;99.90;;;;;;6252659;23;20435;-82
2023/02/21 18:56:11;;;;;;;41.23;24.80;;;9.90;99.90;;;;;;6253130;23;20739;-83
2023/02/21 18:58:40;;;;;;;43.53;24.17;;;9.90;99.90;;;;;;6253064;23;20410;-82
2023/02/21 19:01:08;;;;;;;41.20;25.23;;;9.80;99.90;;;;;;6281532;22;20843;-83
2023/02/21 19:03:34;;;;;;;42.33;24.73;;;9.80;99.90;;;;;;6256601;22;20411;-83
2023/02/21 19:06:00;;;;;;;48.03;25.37;;;9.80;99.90;;;;;;6257006;23;20375;-82
2023/02/21 19:08:28;;;;;;;46.10;25.87;;;9.80;99.90;;;;;;6279867;22;20492;-84
2023/02/21 19:10:53;;;;;;;42.20;25.00;;;9.80;99.90;;;;;;6255684;23;20383;-83
2023/02/21 19:13:19;;;;;;;48.17;28.20;;;9.80;99.90;;;;;;6258869;23;20432;-83
2023/02/21 19:15:47;;;;;;;48.47;26.37;;;9.80;99.90;;;;;;6257820;23;20153;-83
2023/02/21 19:18:15;;;;;;;46.47;25.27;;;9.80;99.90;;;;;;6257224;22;20835;-84
2023/02/21 19:20:43;;;;;;;45.27;25.50;;;9.80;99.90;;;;;;6254384;22;20383;-86
2023/02/21 19:23:09;;;;;;;51.40;30.00;;;9.80;99.90;;;;;;6277362;22;20395;-86
2023/02/21 19:25:34;;;;;;;46.00;28.77;;;9.80;99.90;;;;;;6253015;23;20384;-85
2023/02/21 19:28:00;;;;;;;51.40;28.10;;;9.70;99.90;;;;;;6283044;22;20164;-84
2023/02/21 19:30:35;;;;;;;50.50;27.67;;;9.70;99.90;;;;;;6267406;22;20201;-84
2023/02/21 19:33:04;;;;;;;45.93;26.50;;;9.70;1.00;;;;;;6265747;22;20168;-85
2023/02/21 19:35:34;;;;;;;48.20;27.23;;;9.70;1.00;;;;;;6287099;22;20387;-83
2023/02/21 19:38:07;;;;;;;54.60;29.97;;;9.60;1.00;;;;;;6252206;22;20482;-83
2023/02/21 19:40:35;;;;;;;49.13;28.47;;;9.60;1.00;;;;;;6251950;22;20368;-84
2023/02/21 19:43:02;;;;;;;45.57;26.67;;;9.50;1.00;;;;;;6277162;22;20400;-82
2023/02/21 19:45:29;;;;;;;46.83;24.87;;;9.50;1.00;;;;;;6254205;22;20718;-82
2023/02/21 19:47:54;;;;;;;53.60;29.07;;;9.50;1.00;;;;;;6250618;22;20384;-83
2023/02/21 19:50:20;;;;;;;46.70;26.93;;;9.60;7.20;;;;;;6251135;23;20939;-84
2023/02/21 19:53:00;;;;;;;53.80;30.23;;;9.60;99.90;;;;;;6248492;23;20243;-83
2023/02/21 19:55:28;;;;;;;49.90;27.13;;;9.60;99.90;;;;;;6249450;22;20187;-83
2023/02/21 19:57:54;;;;;;;43.93;27.47;;;9.50;99.90;;;;;;6251351;22;20376;-82
2023/02/21 20:00:19;;;;;;;50.87;28.77;;;9.50;99.90;;;;;;6274374;22;20380;-83
2023/02/21 20:02:46;;;;;;;50.27;26.60;;;9.60;99.90;;;;;;6251346;23;20157;-82
2023/02/21 20:05:13;;;;;;;50.00;29.70;;;9.60;99.90;;;;;;6251002;22;20149;-83
2023/02/21 20:11:09;;;;;;;;;;;;;;;;;;;;;
2023/02/21 20:17:10;;;;;;;;;;;;;;;;;;;;;
2023/02/21 20:19:26;;;;;;;62.87;38.77;;;9.60;99.90;;;;;;6245146;22;20863;-84
2023/02/21 20:21:55;;;;;;;48.73;28.13;;;9.60;99.90;;;;;;6270504;22;20458;-85
2023/02/21 20:24:41;;;;;;;52.50;27.77;;;9.60;99.90;;;;;;6246262;22;20446;-84
2023/02/21 20:27:34;;;;;;;;;;;;;;;;;;;;;
2023/02/21 20:30:00;;;;;;;61.83;31.00;;;9.60;99.90;;;;;;6245127;23;20450;-84
2023/02/21 20:32:26;;;;;;;74.13;40.53;;;9.60;99.90;;;;;;6245526;23;20406;-85
2023/02/21 20:34:53;;;;;;;51.03;28.97;;;9.50;99.90;;;;;;6269917;22;20173;-84
2023/02/21 20:37:21;;;;;;;53.97;29.97;;;9.50;99.90;;;;;;6247853;22;20165;-84
2023/02/21 20:39:50;;;;;;;48.77;28.40;;;9.50;99.90;;;;;;6247325;22;20371;-84
2023/02/21 20:42:21;;;;;;;53.43;29.10;;;9.50;1.00;;;;;;6270753;22;20384;-84
2023/02/21 20:44:49;;;;;;;63.53;36.13;;;9.60;99.90;;;;;;6245433;22;20388;-84
2023/02/21 20:47:15;;;;;;;71.97;41.20;;;9.60;99.90;;;;;;6245333;22;20398;-83
2023/02/21 20:49:54;;;;;;;61.13;30.03;;;9.50;1.00;;;;;;6246207;22;20394;-85
2023/02/21 20:52:26;;;;;;;67.17;33.97;;;9.40;1.00;;;;;;6272205;22;20426;-85
2023/02/21 20:54:55;;;;;;;64.33;36.70;;;9.30;1.00;;;;;;6270163;22;21326;-84
2023/02/21 20:57:21;;;;;;;70.33;33.30;;;9.20;28.20;;;;;;6268351;22;20386;-84
2023/02/21 20:59:54;;;;;;;66.20;32.43;;;9.20;99.90;;;;;;6245221;23;20381;-84
2023/02/21 21:02:19;;;;;;;66.95;31.52;;;9.20;99.90;;;;;;6244087;23;20216;-84
2023/02/21 21:04:46;;;;;;;80.87;35.33;;;9.20;99.90;;;;;;6245350;23;20499;-84
2023/02/21 21:07:23;;;;;;;65.77;34.40;;;9.20;99.90;;;;;;6244820;22;20184;-84
2023/02/21 21:09:52;;;;;;;72.57;35.80;;;9.10;99.90;;;;;;6245024;22;20831;-84
2023/02/21 21:12:26;;;;;;;72.07;35.67;;;9.10;99.90;;;;;;6242471;22;20172;-84
2023/02/21 21:14:52;;;;;;;68.93;32.78;;;9.10;99.90;;;;;;6246050;22;20195;-84
2023/02/21 21:17:19;;;;;;;88.97;35.47;;;9.00;99.90;;;;;;6244106;22;20149;-85
2023/02/21 21:19:47;;;;;;;75.38;36.00;;;8.90;99.90;;;;;;6244961;22;20412;-83
2023/02/21 21:22:23;;;;;;;75.15;34.78;;;8.90;99.90;;;;;;6251574;22;20647;-84
2023/02/21 21:24:50;;;;;;;81.40;36.38;;;9.00;99.90;;;;;;6249958;22;20238;-83
2023/02/21 21:27:16;;;;;;;80.20;34.60;;;8.90;1.00;;;;;;6249380;22;20153;-84
2023/02/21 21:29:44;;;;;;;92.33;38.00;;;8.90;1.00;;;;;;6250082;22;20372;-84
2023/02/21 21:32:11;;;;;;;90.50;38.80;;;8.90;1.00;;;;;;6248087;23;20399;-84
2023/02/21 21:34:43;;;;;;;85.47;39.67;;;8.90;1.00;;;;;;6252468;22;20408;-84
2023/02/21 21:37:09;;;;;;;99.22;41.67;;;8.90;1.00;;;;;;6277979;22;20368;-84
2023/02/21 21:39:36;;;;;;;106.20;43.37;;;8.80;1.00;;;;;;6273615;22;20466;-84
2023/02/21 21:42:07;;;;;;;98.60;39.10;;;8.70;1.00;;;;;;6249044;22;20368;-84
2023/02/21 21:44:33;;;;;;;103.07;41.63;;;8.70;1.00;;;;;;6251930;23;20208;-84
2023/02/21 21:47:01;;;;;;;95.97;38.67;;;8.70;1.00;;;;;;6252770;23;20180;-84
2023/02/21 21:49:54;;;;;;;93.28;39.17;;;8.70;1.00;;;;;;6277252;22;20380;-84
2023/02/21 21:52:24;;;;;;;87.50;37.90;;;8.70;1.00;;;;;;6250412;22;20157;-84
2023/02/21 21:54:49;;;;;;;89.33;40.73;;;8.80;1.00;;;;;;6252611;22;20184;-84
2023/02/21 22:00:35;;;;;;;98.13;39.05;;;8.70;1.00;;;;;;6250494;22;20157;-84
2023/02/21 22:03:02;;;;;;;99.55;39.47;;;8.70;1.00;;;;;;6263047;22;20175;-84
2023/02/21 22:05:34;;;;;;;96.17;40.30;;;8.70;1.00;;;;;;6257517;22;20161;-84
2023/02/21 22:08:02;;;;;;;94.38;39.13;;;8.70;1.00;;;;;;6255568;22;20167;-84
2023/02/21 22:10:30;;;;;;;90.60;38.17;;;8.70;1.00;;;;;;6253940;23;20580;-84
2023/02/21 22:12:58;;;;;;;92.07;38.95;;;8.70;1.00;;;;;;6253729;23;20518;-85
2023/02/21 22:15:27;;;;;;;91.13;37.50;;;8.60;1.00;;;;;;6251913;22;20145;-85
2023/02/21 22:18:03;;;;;;;;;;;;;;;;;;;;;
2023/02/21 22:20:37;;;;;;;105.18;40.83;;;8.60;1.00;;;;;;6252193;23;20503;-85
2023/02/21 22:23:12;;;;;;;113.35;40.33;;;8.60;1.00;;;;;;6251103;22;20157;-85
2023/02/21 22:25:38;;;;;;;117.00;44.08;;;8.50;1.00;;;;;;6248675;22;20519;-85
2023/02/21 22:28:11;;;;;;;121.40;42.20;;;8.40;1.00;;;;;;6250476;23;20207;-85
2023/02/21 22:30:38;;;;;;;122.13;47.33;;;8.30;1.00;;;;;;6250991;22;20159;-84
2023/02/21 22:33:06;;;;;;;114.32;42.78;;;8.30;1.00;;;;;;6254043;22;20256;-84
2023/02/21 22:35:34;;;;;;;146.57;46.60;;;8.20;1.00;;;;;;6257943;22;20496;-85
2023/02/21 22:38:00;;;;;;;129.87;48.70;;;8.30;1.00;;;;;;6252210;23;20283;-85
2023/02/21 22:40:35;;;;;;;150.52;44.33;;;8.20;1.00;;;;;;6248124;22;20391;-85
2023/02/21 22:43:09;;;;;;;153.75;44.38;;;8.20;1.00;;;;;;6251839;22;20204;-84
2023/02/21 22:45:38;;;;;;;196.93;43.17;;;8.20;1.00;;;;;;6253945;22;20132;-84
2023/02/21 22:48:09;;;;;;;208.60;45.63;;;8.20;1.00;;;;;;6252445;23;20157;-84
2023/02/21 22:50:39;;;;;;;149.90;42.45;;;8.20;1.00;;;;;;6256159;22;20153;-85
2023/02/21 22:53:11;;;;;;;177.40;45.05;;;8.20;1.00;;;;;;6250638;23;20200;-85
2023/02/21 22:55:39;;;;;;;200.43;47.13;;;8.20;1.00;;;;;;6252532;22;20514;-85
2023/02/21 22:58:09;;;;;;;280.77;48.45;;;8.20;1.00;;;;;;6261848;22;20160;-85
2023/02/21 23:00:38;;;;;;;264.55;48.65;;;8.20;1.00;;;;;;6266628;22;20185;-84
2023/02/21 23:06:01;;;;;;;275.63;52.92;;;8.10;1.00;;;;;;6251559;22;20589;-84
2023/02/21 23:08:28;;;;;;;252.32;50.17;;;8.10;1.00;;;;;;6250406;23;20157;-84
2023/02/21 23:10:54;;;;;;;242.82;50.10;;;8.10;1.00;;;;;;6249509;23;20190;-84
2023/02/21 23:13:26;;;;;;;282.85;53.03;;;8.00;1.00;;;;;;6248385;22;20522;-85
2023/02/21 23:16:00;;;;;;;266.85;51.92;;;8.00;1.00;;;;;;6247045;23;20164;-84
2023/02/21 23:18:26;;;;;;;289.80;53.45;;;8.10;1.00;;;;;;6250266;22;20161;-84
2023/02/21 23:20:56;;;;;;;287.25;48.40;;;8.10;1.00;;;;;;6247854;22;20173;-84
2023/02/21 23:23:31;;;;;;;275.30;49.17;;;8.10;1.00;;;;;;6245359;22;20197;-85
2023/02/21 23:26:18;;;;;;;271.48;45.55;;;8.10;1.00;;;;;;6243865;22;20199;-84
2023/02/21 23:28:50;;;;;;;400.08;56.55;;;8.00;1.00;;;;;;6246364;22;20141;-85
2023/02/21 23:31:17;;;;;;;361.23;54.70;;;8.00;1.00;;;;;;6269527;22;20145;-85
2023/02/21 23:33:43;;;;;;;298.80;51.10;;;7.90;1.00;;;;;;6244344;23;20248;-85
2023/02/21 23:36:08;;;;;;;312.33;54.15;;;7.90;1.00;;;;;;6244256;22;20228;-85
2023/02/21 23:38:37;;;;;;;375.20;55.93;;;7.90;1.00;;;;;;6244865;23;20191;-85
2023/02/21 23:41:06;;;;;;;388.63;61.25;;;7.90;1.00;;;;;;6269812;22;20157;-85
2023/02/21 23:43:34;;;;;;;417.23;58.28;;;7.90;1.00;;;;;;6244241;23;20173;-85
2023/02/21 23:46:01;;;;;;;385.50;61.30;;;7.90;1.00;;;;;;6270109;22;20179;-85
2023/02/21 23:48:31;;;;;;;386.27;54.60;;;7.90;1.00;;;;;;6244919;23;20160;-85
2023/02/21 23:50:58;;;;;;;248.00;48.72;;;7.80;1.00;;;;;;6271600;22;20823;-85